Uffculme, United Kingdom
Current Conditions -  °F | °C
As of 9:20 AM on Tuesday 21 Oct 2014 (Local Time) from EGTE Reporting Station
Few Clouds Few Clouds  
Wind Chill: 54°   Ceiling: Unl
Heat Index: 54°   Visibility: 6mi
Dew Point: 43°   Wind: 23mph
Humidity: 67%   Direction: 290°WNW
Pressure: 29.77"   Gusts: 36mph
Location:  50.91°N, 3.33°W
Report Text: EGTE 210820Z 29020G31KT 9999 FEW025 12/06 Q1008
Loading
Personal Weather Stations






























Interactive Weather Map New forecast layout! Learn more

10-Day Weather Forecast

Advertisements
Track Severe Weather on mobile